sensor_id;sensor_type;location;lat;lon;timestamp;P1;durP1;ratioP1;P2;durP2;ratioP2
11931;SDS011;6025;51.368;6.788;2022-09-28T00:01:19;8.33;;;6.40;;
11931;SDS011;6025;51.368;6.788;2022-09-28T00:06:13;8.67;;;6.57;;
11931;SDS011;6025;51.368;6.788;2022-09-28T00:11:08;8.60;;;6.40;;
11931;SDS011;6025;51.368;6.788;2022-09-28T00:16:01;8.53;;;6.53;;
11931;SDS011;6025;51.368;6.788;2022-09-28T00:21:01;6.90;;;6.07;;
11931;SDS011;6025;51.368;6.788;2022-09-28T00:25:54;8.97;;;6.13;;
11931;SDS011;6025;51.368;6.788;2022-09-28T00:30:47;8.63;;;5.50;;
11931;SDS011;6025;51.368;6.788;2022-09-28T00:35:44;7.40;;;5.70;;
11931;SDS011;6025;51.368;6.788;2022-09-28T00:40:36;8.47;;;5.47;;
11931;SDS011;6025;51.368;6.788;2022-09-28T00:45:27;5.97;;;4.87;;
11931;SDS011;6025;51.368;6.788;2022-09-28T00:50:21;6.70;;;5.07;;
11931;SDS011;6025;51.368;6.788;2022-09-28T00:55:16;8.00;;;5.00;;
11931;SDS011;6025;51.368;6.788;2022-09-28T01:00:10;8.93;;;5.33;;
11931;SDS011;6025;51.368;6.788;2022-09-28T01:05:04;7.17;;;5.17;;
11931;SDS011;6025;51.368;6.788;2022-09-28T01:09:58;6.00;;;5.40;;
11931;SDS011;6025;51.368;6.788;2022-09-28T01:14:49;6.20;;;5.43;;
11931;SDS011;6025;51.368;6.788;2022-09-28T01:19:55;8.47;;;6.27;;
11931;SDS011;6025;51.368;6.788;2022-09-28T01:24:58;9.10;;;6.97;;
11931;SDS011;6025;51.368;6.788;2022-09-28T01:30:00;9.20;;;6.90;;
11931;SDS011;6025;51.368;6.788;2022-09-28T01:34:56;10.33;;;7.10;;
11931;SDS011;6025;51.368;6.788;2022-09-28T01:39:48;7.87;;;7.07;;
11931;SDS011;6025;51.368;6.788;2022-09-28T01:44:43;8.20;;;7.23;;
11931;SDS011;6025;51.368;6.788;2022-09-28T01:49:38;8.53;;;7.47;;
11931;SDS011;6025;51.368;6.788;2022-09-28T01:54:33;11.37;;;8.20;;
11931;SDS011;6025;51.368;6.788;2022-09-28T01:59:28;11.20;;;8.13;;
11931;SDS011;6025;51.368;6.788;2022-09-28T02:04:21;10.17;;;9.07;;
11931;SDS011;6025;51.368;6.788;2022-09-28T02:09:17;12.50;;;9.87;;
11931;SDS011;6025;51.368;6.788;2022-09-28T02:14:12;14.30;;;9.90;;
11931;SDS011;6025;51.368;6.788;2022-09-28T02:19:06;14.57;;;10.97;;
11931;SDS011;6025;51.368;6.788;2022-09-28T02:24:00;14.53;;;11.27;;
11931;SDS011;6025;51.368;6.788;2022-09-28T02:28:55;12.47;;;11.13;;
11931;SDS011;6025;51.368;6.788;2022-09-28T02:33:46;12.13;;;10.53;;
11931;SDS011;6025;51.368;6.788;2022-09-28T02:38:40;12.37;;;10.37;;
11931;SDS011;6025;51.368;6.788;2022-09-28T02:43:33;11.77;;;9.67;;
11931;SDS011;6025;51.368;6.788;2022-09-28T02:48:41;11.13;;;9.73;;
11931;SDS011;6025;51.368;6.788;2022-09-28T02:53:50;10.53;;;9.07;;
11931;SDS011;6025;51.368;6.788;2022-09-28T02:58:50;10.67;;;8.93;;
11931;SDS011;6025;51.368;6.788;2022-09-28T03:03:47;9.83;;;8.60;;
11931;SDS011;6025;51.368;6.788;2022-09-28T03:08:41;9.97;;;8.60;;
11931;SDS011;6025;51.368;6.788;2022-09-28T03:13:35;11.17;;;8.60;;
11931;SDS011;6025;51.368;6.788;2022-09-28T03:18:27;11.27;;;9.30;;
11931;SDS011;6025;51.368;6.788;2022-09-28T03:23:20;10.67;;;9.53;;
11931;SDS011;6025;51.368;6.788;2022-09-28T03:28:11;9.93;;;8.97;;
11931;SDS011;6025;51.368;6.788;2022-09-28T03:33:03;10.80;;;9.00;;
11931;SDS011;6025;51.368;6.788;2022-09-28T03:37:56;10.97;;;9.77;;
11931;SDS011;6025;51.368;6.788;2022-09-28T03:42:49;10.90;;;9.80;;
11931;SDS011;6025;51.368;6.788;2022-09-28T03:47:43;12.97;;;11.23;;
11931;SDS011;6025;51.368;6.788;2022-09-28T03:52:35;13.23;;;11.83;;
11931;SDS011;6025;51.368;6.788;2022-09-28T03:57:27;15.50;;;12.50;;
11931;SDS011;6025;51.368;6.788;2022-09-28T04:02:20;13.47;;;11.17;;
11931;SDS011;6025;51.368;6.788;2022-09-28T04:07:11;14.07;;;12.50;;
11931;SDS011;6025;51.368;6.788;2022-09-28T04:12:03;15.10;;;12.43;;
11931;SDS011;6025;51.368;6.788;2022-09-28T04:16:55;14.63;;;13.13;;
11931;SDS011;6025;51.368;6.788;2022-09-28T04:21:47;19.60;;;13.97;;
11931;SDS011;6025;51.368;6.788;2022-09-28T04:26:40;14.63;;;13.13;;
11931;SDS011;6025;51.368;6.788;2022-09-28T04:31:36;16.10;;;14.40;;
11931;SDS011;6025;51.368;6.788;2022-09-28T04:36:28;15.80;;;13.90;;
11931;SDS011;6025;51.368;6.788;2022-09-28T04:41:21;17.87;;;15.10;;
11931;SDS011;6025;51.368;6.788;2022-09-28T04:46:12;17.97;;;15.33;;
11931;SDS011;6025;51.368;6.788;2022-09-28T04:51:05;16.93;;;15.23;;
11931;SDS011;6025;51.368;6.788;2022-09-28T04:55:57;17.63;;;15.77;;
11931;SDS011;6025;51.368;6.788;2022-09-28T05:00:50;18.40;;;16.40;;
11931;SDS011;6025;51.368;6.788;2022-09-28T05:05:43;19.27;;;15.60;;
11931;SDS011;6025;51.368;6.788;2022-09-28T05:10:35;16.07;;;14.37;;
11931;SDS011;6025;51.368;6.788;2022-09-28T05:15:29;16.70;;;14.10;;
11931;SDS011;6025;51.368;6.788;2022-09-28T05:20:22;16.87;;;15.07;;
11931;SDS011;6025;51.368;6.788;2022-09-28T05:25:14;16.73;;;13.90;;
11931;SDS011;6025;51.368;6.788;2022-09-28T05:30:06;17.70;;;13.97;;
11931;SDS011;6025;51.368;6.788;2022-09-28T05:34:59;16.20;;;14.53;;
11931;SDS011;6025;51.368;6.788;2022-09-28T05:39:56;15.50;;;13.90;;
11931;SDS011;6025;51.368;6.788;2022-09-28T05:44:47;17.43;;;14.33;;
11931;SDS011;6025;51.368;6.788;2022-09-28T05:49:39;14.57;;;13.00;;
11931;SDS011;6025;51.368;6.788;2022-09-28T05:54:31;16.93;;;13.27;;
11931;SDS011;6025;51.368;6.788;2022-09-28T05:59:24;16.97;;;12.83;;
11931;SDS011;6025;51.368;6.788;2022-09-28T06:04:16;14.60;;;12.17;;
11931;SDS011;6025;51.368;6.788;2022-09-28T06:09:07;15.20;;;11.47;;
11931;SDS011;6025;51.368;6.788;2022-09-28T06:13:59;13.57;;;12.27;;
11931;SDS011;6025;51.368;6.788;2022-09-28T06:18:52;12.93;;;11.20;;
11931;SDS011;6025;51.368;6.788;2022-09-28T06:23:43;15.00;;;10.67;;
11931;SDS011;6025;51.368;6.788;2022-09-28T06:28:35;11.03;;;9.93;;
11931;SDS011;6025;51.368;6.788;2022-09-28T06:33:27;12.40;;;10.23;;
11931;SDS011;6025;51.368;6.788;2022-09-28T06:38:20;11.30;;;9.97;;
11931;SDS011;6025;51.368;6.788;2022-09-28T06:43:12;11.07;;;9.37;;
11931;SDS011;6025;51.368;6.788;2022-09-28T06:48:05;9.90;;;8.90;;
11931;SDS011;6025;51.368;6.788;2022-09-28T06:52:57;10.33;;;8.50;;
11931;SDS011;6025;51.368;6.788;2022-09-28T06:57:56;8.60;;;7.63;;
11931;SDS011;6025;51.368;6.788;2022-09-28T07:02:49;10.83;;;8.53;;
11931;SDS011;6025;51.368;6.788;2022-09-28T07:07:40;12.57;;;8.47;;
11931;SDS011;6025;51.368;6.788;2022-09-28T07:12:33;12.90;;;8.53;;
11931;SDS011;6025;51.368;6.788;2022-09-28T07:17:26;9.83;;;8.57;;
11931;SDS011;6025;51.368;6.788;2022-09-28T07:22:18;11.87;;;8.37;;
11931;SDS011;6025;51.368;6.788;2022-09-28T07:27:10;12.23;;;9.67;;
11931;SDS011;6025;51.368;6.788;2022-09-28T07:32:01;11.70;;;9.27;;
11931;SDS011;6025;51.368;6.788;2022-09-28T07:36:54;12.47;;;6.80;;
11931;SDS011;6025;51.368;6.788;2022-09-28T07:41:47;10.90;;;6.67;;
11931;SDS011;6025;51.368;6.788;2022-09-28T07:46:39;6.93;;;5.17;;
11931;SDS011;6025;51.368;6.788;2022-09-28T07:51:32;5.80;;;5.20;;
11931;SDS011;6025;51.368;6.788;2022-09-28T07:56:25;6.43;;;5.30;;
11931;SDS011;6025;51.368;6.788;2022-09-28T08:01:17;6.97;;;5.10;;
11931;SDS011;6025;51.368;6.788;2022-09-28T08:06:09;6.03;;;4.97;;
11931;SDS011;6025;51.368;6.788;2022-09-28T08:11:02;8.13;;;5.10;;
11931;SDS011;6025;51.368;6.788;2022-09-28T08:16:00;5.75;;;5.15;;
11931;SDS011;6025;51.368;6.788;2022-09-28T08:20:52;6.60;;;5.57;;
11931;SDS011;6025;51.368;6.788;2022-09-28T08:26:01;5.63;;;5.07;;
11931;SDS011;6025;51.368;6.788;2022-09-28T08:30:53;6.60;;;5.03;;
11931;SDS011;6025;51.368;6.788;2022-09-28T08:35:46;6.72;;;5.10;;
11931;SDS011;6025;51.368;6.788;2022-09-28T08:40:41;6.18;;;4.60;;
11931;SDS011;6025;51.368;6.788;2022-09-28T08:45:37;6.53;;;4.88;;
11931;SDS011;6025;51.368;6.788;2022-09-28T08:50:29;5.30;;;4.68;;
11931;SDS011;6025;51.368;6.788;2022-09-28T08:55:25;5.82;;;4.32;;
11931;SDS011;6025;51.368;6.788;2022-09-28T09:00:19;6.32;;;4.35;;
11931;SDS011;6025;51.368;6.788;2022-09-28T09:05:12;7.37;;;5.77;;
11931;SDS011;6025;51.368;6.788;2022-09-28T09:10:07;9.35;;;6.30;;
11931;SDS011;6025;51.368;6.788;2022-09-28T09:15:14;10.38;;;6.30;;
11931;SDS011;6025;51.368;6.788;2022-09-28T09:20:14;8.00;;;5.97;;
11931;SDS011;6025;51.368;6.788;2022-09-28T09:25:16;7.43;;;6.00;;
11931;SDS011;6025;51.368;6.788;2022-09-28T09:30:09;5.72;;;5.13;;
11931;SDS011;6025;51.368;6.788;2022-09-28T09:40:27;6.32;;;5.72;;
11931;SDS011;6025;51.368;6.788;2022-09-28T09:45:27;6.03;;;4.85;;
11931;SDS011;6025;51.368;6.788;2022-09-28T09:50:26;8.35;;;4.82;;
11931;SDS011;6025;51.368;6.788;2022-09-28T09:55:22;5.00;;;4.38;;
11931;SDS011;6025;51.368;6.788;2022-09-28T10:00:16;4.82;;;4.43;;
11931;SDS011;6025;51.368;6.788;2022-09-28T10:05:14;6.35;;;4.68;;
11931;SDS011;6025;51.368;6.788;2022-09-28T10:10:12;5.00;;;4.57;;
11931;SDS011;6025;51.368;6.788;2022-09-28T10:15:12;7.38;;;4.90;;
11931;SDS011;6025;51.368;6.788;2022-09-28T10:20:09;6.20;;;5.00;;
11931;SDS011;6025;51.368;6.788;2022-09-28T10:25:02;6.00;;;5.13;;
11931;SDS011;6025;51.368;6.788;2022-09-28T10:30:00;8.05;;;5.07;;
11931;SDS011;6025;51.368;6.788;2022-09-28T10:34:53;6.50;;;4.80;;
11931;SDS011;6025;51.368;6.788;2022-09-28T10:40:03;7.30;;;4.60;;
11931;SDS011;6025;51.368;6.788;2022-09-28T10:44:57;5.47;;;4.43;;
11931;SDS011;6025;51.368;6.788;2022-09-28T10:49:52;3.13;;;2.60;;
11931;SDS011;6025;51.368;6.788;2022-09-28T10:54:51;3.50;;;2.50;;
11931;SDS011;6025;51.368;6.788;2022-09-28T10:59:43;4.57;;;2.35;;
11931;SDS011;6025;51.368;6.788;2022-09-28T11:04:39;2.60;;;1.83;;
11931;SDS011;6025;51.368;6.788;2022-09-28T11:09:33;2.80;;;1.90;;
11931;SDS011;6025;51.368;6.788;2022-09-28T11:14:29;3.70;;;1.98;;
11931;SDS011;6025;51.368;6.788;2022-09-28T11:19:26;2.50;;;1.90;;
11931;SDS011;6025;51.368;6.788;2022-09-28T11:24:20;4.20;;;2.08;;
11931;SDS011;6025;51.368;6.788;2022-09-28T11:29:21;3.88;;;2.05;;
11931;SDS011;6025;51.368;6.788;2022-09-28T11:34:19;2.78;;;2.30;;
11931;SDS011;6025;51.368;6.788;2022-09-28T11:39:14;4.88;;;2.67;;
11931;SDS011;6025;51.368;6.788;2022-09-28T11:44:22;5.25;;;2.80;;
11931;SDS011;6025;51.368;6.788;2022-09-28T11:49:24;4.80;;;2.92;;
11931;SDS011;6025;51.368;6.788;2022-09-28T11:54:20;4.15;;;3.20;;
11931;SDS011;6025;51.368;6.788;2022-09-28T11:59:19;3.55;;;3.05;;
11931;SDS011;6025;51.368;6.788;2022-09-28T12:04:17;4.32;;;2.78;;
11931;SDS011;6025;51.368;6.788;2022-09-28T12:09:12;6.30;;;2.40;;
11931;SDS011;6025;51.368;6.788;2022-09-28T12:14:10;4.85;;;2.30;;
11931;SDS011;6025;51.368;6.788;2022-09-28T12:19:07;3.33;;;2.50;;
11931;SDS011;6025;51.368;6.788;2022-09-28T12:24:05;2.75;;;1.95;;
11931;SDS011;6025;51.368;6.788;2022-09-28T12:29:04;5.57;;;2.70;;
11931;SDS011;6025;51.368;6.788;2022-09-28T12:34:00;4.22;;;2.30;;
11931;SDS011;6025;51.368;6.788;2022-09-28T12:38:57;2.50;;;2.20;;
11931;SDS011;6025;51.368;6.788;2022-09-28T12:44:10;3.28;;;2.10;;
11931;SDS011;6025;51.368;6.788;2022-09-28T12:49:23;3.00;;;1.77;;
11931;SDS011;6025;51.368;6.788;2022-09-28T12:54:35;4.25;;;2.53;;
11931;SDS011;6025;51.368;6.788;2022-09-28T12:59:35;5.18;;;2.80;;
11931;SDS011;6025;51.368;6.788;2022-09-28T13:04:32;2.60;;;2.20;;
11931;SDS011;6025;51.368;6.788;2022-09-28T13:09:49;4.18;;;2.03;;
11931;SDS011;6025;51.368;6.788;2022-09-28T13:14:51;2.47;;;2.10;;
11931;SDS011;6025;51.368;6.788;2022-09-28T13:19:58;3.03;;;2.30;;
11931;SDS011;6025;51.368;6.788;2022-09-28T13:24:54;5.38;;;1.80;;
11931;SDS011;6025;51.368;6.788;2022-09-28T13:29:48;3.55;;;1.75;;
11931;SDS011;6025;51.368;6.788;2022-09-28T13:34:42;3.45;;;1.95;;
11931;SDS011;6025;51.368;6.788;2022-09-28T13:39:47;4.22;;;1.85;;
11931;SDS011;6025;51.368;6.788;2022-09-28T13:44:48;3.05;;;2.10;;
11931;SDS011;6025;51.368;6.788;2022-09-28T13:49:51;2.78;;;2.45;;
11931;SDS011;6025;51.368;6.788;2022-09-28T13:54:52;3.67;;;2.17;;
11931;SDS011;6025;51.368;6.788;2022-09-28T13:59:56;2.45;;;2.03;;
11931;SDS011;6025;51.368;6.788;2022-09-28T14:05:01;2.85;;;2.08;;
11931;SDS011;6025;51.368;6.788;2022-09-28T14:10:12;3.13;;;1.55;;
11931;SDS011;6025;51.368;6.788;2022-09-28T14:15:13;2.55;;;1.90;;
11931;SDS011;6025;51.368;6.788;2022-09-28T14:20:32;4.50;;;1.90;;
11931;SDS011;6025;51.368;6.788;2022-09-28T14:25:25;2.05;;;1.60;;
11931;SDS011;6025;51.368;6.788;2022-09-28T14:30:21;2.50;;;1.90;;
11931;SDS011;6025;51.368;6.788;2022-09-28T14:35:15;3.05;;;1.92;;
11931;SDS011;6025;51.368;6.788;2022-09-28T14:40:15;3.13;;;2.25;;
11931;SDS011;6025;51.368;6.788;2022-09-28T14:45:35;3.15;;;2.20;;
11931;SDS011;6025;51.368;6.788;2022-09-28T14:50:28;2.80;;;2.53;;
11931;SDS011;6025;51.368;6.788;2022-09-28T14:55:23;2.83;;;2.38;;
11931;SDS011;6025;51.368;6.788;2022-09-28T15:00:19;5.93;;;1.42;;
11931;SDS011;6025;51.368;6.788;2022-09-28T15:05:13;4.57;;;1.20;;
11931;SDS011;6025;51.368;6.788;2022-09-28T15:10:13;4.18;;;2.20;;
11931;SDS011;6025;51.368;6.788;2022-09-28T15:15:06;7.65;;;4.07;;
11931;SDS011;6025;51.368;6.788;2022-09-28T15:20:10;15.82;;;6.88;;
11931;SDS011;6025;51.368;6.788;2022-09-28T15:25:13;13.52;;;7.35;;
11931;SDS011;6025;51.368;6.788;2022-09-28T15:30:15;15.88;;;8.88;;
11931;SDS011;6025;51.368;6.788;2022-09-28T15:35:12;10.63;;;7.20;;
11931;SDS011;6025;51.368;6.788;2022-09-28T15:40:12;13.60;;;7.60;;
11931;SDS011;6025;51.368;6.788;2022-09-28T15:45:18;12.53;;;6.93;;
11931;SDS011;6025;51.368;6.788;2022-09-28T15:50:19;8.20;;;4.73;;
11931;SDS011;6025;51.368;6.788;2022-09-28T15:55:19;4.37;;;2.60;;
11931;SDS011;6025;51.368;6.788;2022-09-28T16:00:23;4.37;;;2.90;;
11931;SDS011;6025;51.368;6.788;2022-09-28T16:05:28;6.87;;;3.10;;
11931;SDS011;6025;51.368;6.788;2022-09-28T16:10:29;3.70;;;2.60;;
11931;SDS011;6025;51.368;6.788;2022-09-28T16:15:25;2.37;;;1.70;;
11931;SDS011;6025;51.368;6.788;2022-09-28T16:20:21;1.90;;;1.70;;
11931;SDS011;6025;51.368;6.788;2022-09-28T16:25:17;2.17;;;1.70;;
11931;SDS011;6025;51.368;6.788;2022-09-28T16:30:16;3.53;;;2.10;;
11931;SDS011;6025;51.368;6.788;2022-09-28T16:35:15;3.10;;;1.80;;
11931;SDS011;6025;51.368;6.788;2022-09-28T16:40:08;2.40;;;1.80;;
11931;SDS011;6025;51.368;6.788;2022-09-28T16:45:00;2.30;;;1.60;;
11931;SDS011;6025;51.368;6.788;2022-09-28T16:49:55;3.13;;;2.17;;
11931;SDS011;6025;51.368;6.788;2022-09-28T16:54:47;2.80;;;2.10;;
11931;SDS011;6025;51.368;6.788;2022-09-28T16:59:56;3.80;;;2.00;;
11931;SDS011;6025;51.368;6.788;2022-09-28T17:04:48;7.87;;;2.13;;
11931;SDS011;6025;51.368;6.788;2022-09-28T17:09:41;2.33;;;1.40;;
11931;SDS011;6025;51.368;6.788;2022-09-28T17:14:33;2.13;;;1.60;;
11931;SDS011;6025;51.368;6.788;2022-09-28T17:19:25;2.40;;;1.17;;
11931;SDS011;6025;51.368;6.788;2022-09-28T17:24:17;1.87;;;1.13;;
11931;SDS011;6025;51.368;6.788;2022-09-28T17:29:11;3.07;;;1.80;;
11931;SDS011;6025;51.368;6.788;2022-09-28T17:34:03;5.50;;;1.90;;
11931;SDS011;6025;51.368;6.788;2022-09-28T17:38:55;3.20;;;2.70;;
11931;SDS011;6025;51.368;6.788;2022-09-28T17:43:47;4.47;;;3.93;;
11931;SDS011;6025;51.368;6.788;2022-09-28T17:48:40;3.30;;;3.00;;
11931;SDS011;6025;51.368;6.788;2022-09-28T17:53:35;4.17;;;2.03;;
11931;SDS011;6025;51.368;6.788;2022-09-28T17:58:26;3.27;;;1.80;;
11931;SDS011;6025;51.368;6.788;2022-09-28T18:03:19;2.13;;;1.90;;
11931;SDS011;6025;51.368;6.788;2022-09-28T18:08:14;4.53;;;2.83;;
11931;SDS011;6025;51.368;6.788;2022-09-28T18:13:07;3.83;;;2.00;;
11931;SDS011;6025;51.368;6.788;2022-09-28T18:17:59;3.60;;;2.10;;
11931;SDS011;6025;51.368;6.788;2022-09-28T18:22:50;4.00;;;2.00;;
11931;SDS011;6025;51.368;6.788;2022-09-28T18:27:43;2.20;;;2.00;;
11931;SDS011;6025;51.368;6.788;2022-09-28T18:32:35;3.23;;;2.17;;
11931;SDS011;6025;51.368;6.788;2022-09-28T18:37:27;6.60;;;4.67;;
11931;SDS011;6025;51.368;6.788;2022-09-28T18:42:19;6.77;;;4.83;;
11931;SDS011;6025;51.368;6.788;2022-09-28T18:47:12;3.97;;;3.30;;
11931;SDS011;6025;51.368;6.788;2022-09-28T18:52:04;3.70;;;3.10;;
11931;SDS011;6025;51.368;6.788;2022-09-28T18:56:55;4.67;;;3.67;;
11931;SDS011;6025;51.368;6.788;2022-09-28T19:01:47;5.17;;;3.77;;
11931;SDS011;6025;51.368;6.788;2022-09-28T19:06:40;5.63;;;4.77;;
11931;SDS011;6025;51.368;6.788;2022-09-28T19:11:33;6.87;;;5.37;;
11931;SDS011;6025;51.368;6.788;2022-09-28T19:16:25;6.17;;;5.57;;
11931;SDS011;6025;51.368;6.788;2022-09-28T19:21:19;6.57;;;5.83;;
11931;SDS011;6025;51.368;6.788;2022-09-28T19:26:13;7.07;;;5.93;;
11931;SDS011;6025;51.368;6.788;2022-09-28T19:31:06;7.67;;;6.83;;
11931;SDS011;6025;51.368;6.788;2022-09-28T19:35:59;11.70;;;8.13;;
11931;SDS011;6025;51.368;6.788;2022-09-28T19:40:51;10.43;;;7.60;;
11931;SDS011;6025;51.368;6.788;2022-09-28T19:45:44;7.53;;;6.77;;
11931;SDS011;6025;51.368;6.788;2022-09-28T19:50:37;7.60;;;6.73;;
11931;SDS011;6025;51.368;6.788;2022-09-28T19:55:29;8.43;;;6.97;;
11931;SDS011;6025;51.368;6.788;2022-09-28T20:00:24;7.27;;;6.47;;
11931;SDS011;6025;51.368;6.788;2022-09-28T20:05:17;8.80;;;6.87;;
11931;SDS011;6025;51.368;6.788;2022-09-28T20:10:09;10.33;;;8.07;;
11931;SDS011;6025;51.368;6.788;2022-09-28T20:15:01;11.73;;;9.20;;
11931;SDS011;6025;51.368;6.788;2022-09-28T20:19:52;15.70;;;11.73;;
11931;SDS011;6025;51.368;6.788;2022-09-28T20:24:45;16.03;;;11.77;;
11931;SDS011;6025;51.368;6.788;2022-09-28T20:29:37;9.57;;;7.63;;
11931;SDS011;6025;51.368;6.788;2022-09-28T20:34:28;9.23;;;7.97;;
11931;SDS011;6025;51.368;6.788;2022-09-28T20:39:20;11.00;;;8.60;;
11931;SDS011;6025;51.368;6.788;2022-09-28T20:44:13;8.70;;;7.23;;
11931;SDS011;6025;51.368;6.788;2022-09-28T20:49:05;8.30;;;7.03;;
11931;SDS011;6025;51.368;6.788;2022-09-28T20:53:56;9.37;;;8.37;;
11931;SDS011;6025;51.368;6.788;2022-09-28T20:58:48;10.53;;;9.27;;
11931;SDS011;6025;51.368;6.788;2022-09-28T21:03:43;10.60;;;8.27;;
11931;SDS011;6025;51.368;6.788;2022-09-28T21:08:36;13.80;;;9.80;;
11931;SDS011;6025;51.368;6.788;2022-09-28T21:13:28;12.30;;;10.57;;
11931;SDS011;6025;51.368;6.788;2022-09-28T21:18:20;14.43;;;11.53;;
11931;SDS011;6025;51.368;6.788;2022-09-28T21:23:14;14.57;;;11.17;;
11931;SDS011;6025;51.368;6.788;2022-09-28T21:28:06;12.60;;;11.07;;
11931;SDS011;6025;51.368;6.788;2022-09-28T21:32:57;16.87;;;12.00;;
11931;SDS011;6025;51.368;6.788;2022-09-28T21:37:50;15.43;;;11.97;;
11931;SDS011;6025;51.368;6.788;2022-09-28T21:42:43;16.33;;;12.90;;
11931;SDS011;6025;51.368;6.788;2022-09-28T21:47:35;15.13;;;12.97;;
11931;SDS011;6025;51.368;6.788;2022-09-28T21:52:26;17.60;;;13.43;;
11931;SDS011;6025;51.368;6.788;2022-09-28T21:57:18;19.20;;;14.30;;
11931;SDS011;6025;51.368;6.788;2022-09-28T22:02:11;17.23;;;13.30;;
11931;SDS011;6025;51.368;6.788;2022-09-28T22:07:03;15.90;;;13.50;;
11931;SDS011;6025;51.368;6.788;2022-09-28T22:11:54;18.37;;;12.87;;
11931;SDS011;6025;51.368;6.788;2022-09-28T22:16:46;18.07;;;13.63;;
11931;SDS011;6025;51.368;6.788;2022-09-28T22:21:39;13.17;;;10.83;;
11931;SDS011;6025;51.368;6.788;2022-09-28T22:26:31;14.93;;;11.50;;
11931;SDS011;6025;51.368;6.788;2022-09-28T22:31:25;16.10;;;12.10;;
11931;SDS011;6025;51.368;6.788;2022-09-28T22:36:18;15.77;;;12.13;;
11931;SDS011;6025;51.368;6.788;2022-09-28T22:41:11;16.00;;;12.97;;
11931;SDS011;6025;51.368;6.788;2022-09-28T22:46:05;15.30;;;12.13;;
11931;SDS011;6025;51.368;6.788;2022-09-28T22:50:58;14.23;;;12.07;;
11931;SDS011;6025;51.368;6.788;2022-09-28T22:55:49;14.40;;;11.90;;
11931;SDS011;6025;51.368;6.788;2022-09-28T23:00:42;15.80;;;12.17;;
11931;SDS011;6025;51.368;6.788;2022-09-28T23:05:34;13.67;;;11.83;;
11931;SDS011;6025;51.368;6.788;2022-09-28T23:10:27;14.57;;;11.27;;
11931;SDS011;6025;51.368;6.788;2022-09-28T23:15:18;16.93;;;11.67;;
11931;SDS011;6025;51.368;6.788;2022-09-28T23:20:12;15.43;;;11.50;;
11931;SDS011;6025;51.368;6.788;2022-09-28T23:25:03;14.10;;;11.27;;
11931;SDS011;6025;51.368;6.788;2022-09-28T23:29:55;13.43;;;10.63;;
11931;SDS011;6025;51.368;6.788;2022-09-28T23:34:47;14.43;;;11.37;;
11931;SDS011;6025;51.368;6.788;2022-09-28T23:39:40;12.23;;;10.77;;
11931;SDS011;6025;51.368;6.788;2022-09-28T23:44:32;13.27;;;11.03;;
11931;SDS011;6025;51.368;6.788;2022-09-28T23:49:24;13.43;;;11.00;;
11931;SDS011;6025;51.368;6.788;2022-09-28T23:54:15;12.53;;;10.43;;
11931;SDS011;6025;51.368;6.788;2022-09-28T23:59:08;11.70;;;10.20;;
